Time;durP1;ratioP1;P1;durP2;ratioP2;P2;SDS_P1;SDS_P2;PMS_P1;PMS_P2;Temp;Humidity;BMP_temperature;BMP_pressure;BME280_temperature;BME280_humidity;BME280_pressure;Samples;Min_cycle;Max_cycle;Signal;HPM_P1;HPM_P2
2023/08/30 00:00:24;;;;;;;2.95;1.42;;;14.90;99.90;;;;;;5131726;28;20245;-66
2023/08/30 00:03:03;;;;;;;1.08;1.08;;;14.90;99.90;;;;;;5170175;28;20163;-66
2023/08/30 00:05:40;;;;;;;1.35;1.25;;;14.90;99.90;;;;;;5138281;28;20049;-69
2023/08/30 00:08:13;;;;;;;1.27;1.17;;;14.90;99.90;;;;;;5128975;28;20075;-67
2023/08/30 00:10:47;;;;;;;1.15;1.08;;;14.90;99.90;;;;;;5139428;28;20042;-66
2023/08/30 00:13:19;;;;;;;1.30;1.20;;;14.90;99.90;;;;;;5169878;28;20110;-66
2023/08/30 00:15:53;;;;;;;1.15;0.98;;;14.90;99.90;;;;;;5131880;28;20057;-67
2023/08/30 00:18:29;;;;;;;1.10;1.10;;;14.90;99.90;;;;;;5166326;28;20298;-66
2023/08/30 00:21:03;;;;;;;1.42;1.33;;;14.90;99.90;;;;;;5143122;28;20174;-67
2023/08/30 00:23:36;;;;;;;1.15;1.15;;;14.90;99.90;;;;;;5172917;28;20045;-67
2023/08/30 00:26:07;;;;;;;1.50;1.40;;;14.90;99.90;;;;;;5155550;28;20334;-68
2023/08/30 00:28:39;;;;;;;1.42;1.33;;;14.90;99.90;;;;;;5160481;28;20034;-67
2023/08/30 00:31:13;;;;;;;1.60;1.20;;;14.90;99.90;;;;;;5149993;28;20045;-68
2023/08/30 00:33:48;;;;;;;1.10;1.10;;;14.90;99.90;;;;;;5149062;28;20050;-67
2023/08/30 00:36:24;;;;;;;1.50;1.40;;;14.90;99.90;;;;;;5135752;28;20057;-68
2023/08/30 00:39:03;;;;;;;1.30;1.20;;;14.90;99.90;;;;;;5133978;28;20433;-69
2023/08/30 00:41:38;;;;;;;1.40;1.30;;;14.90;99.90;;;;;;5116745;28;20040;-68
2023/08/30 00:44:09;;;;;;;0.95;0.95;;;14.90;99.90;;;;;;5128269;28;20051;-67
2023/08/30 00:46:45;;;;;;;1.23;1.13;;;15.00;99.90;;;;;;5148909;28;20042;-67
2023/08/30 00:49:16;;;;;;;1.00;0.95;;;15.00;99.90;;;;;;5147821;28;20404;-68
2023/08/30 00:51:48;;;;;;;1.00;1.00;;;15.00;99.90;;;;;;5154173;28;20377;-68
2023/08/30 00:54:22;;;;;;;1.50;1.40;;;15.00;99.90;;;;;;5168893;28;20427;-68
2023/08/30 00:57:00;;;;;;;1.30;1.20;;;15.00;99.90;;;;;;5138834;28;20042;-68
2023/08/30 00:59:39;;;;;;;1.67;1.42;;;15.00;99.90;;;;;;5139060;28;20042;-68
2023/08/30 01:02:13;;;;;;;1.45;1.35;;;15.00;99.90;;;;;;5215831;23;20075;-62
2023/08/30 01:04:45;;;;;;;1.30;1.23;;;15.10;99.90;;;;;;5178722;28;20241;-63
2023/08/30 01:07:20;;;;;;;1.55;1.45;;;15.10;99.90;;;;;;5174755;28;20528;-63
2023/08/30 01:09:55;;;;;;;1.00;1.00;;;15.10;98.70;;;;;;5188064;28;20057;-64
2023/08/30 01:12:39;;;;;;;;;;;15.10;99.90;;;;;;5152319;28;20053;-65
2023/08/30 01:15:20;;;;;;;1.50;1.40;;;15.10;99.90;;;;;;5189928;28;19920;-65
2023/08/30 01:17:56;;;;;;;1.33;1.23;;;15.10;99.50;;;;;;5215157;28;20493;-66
2023/08/30 01:20:29;;;;;;;1.35;1.27;;;15.10;96.70;;;;;;5159037;28;20033;-64
2023/08/30 01:23:10;;;;;;;1.65;1.20;;;15.10;87.50;;;;;;5153833;28;20049;-65
2023/08/30 01:26:05;;;;;;;1.17;1.17;;;15.10;85.20;;;;;;5162802;28;20063;-63
2023/08/30 01:28:40;;;;;;;1.55;1.45;;;15.10;90.30;;;;;;5158648;28;20041;-65
2023/08/30 01:31:15;;;;;;;1.20;1.10;;;15.10;99.90;;;;;;5154449;28;20498;-64
2023/08/30 01:33:51;;;;;;;1.45;1.17;;;15.10;99.90;;;;;;5181293;28;20052;-65
2023/08/30 01:36:23;;;;;;;1.10;1.10;;;15.10;85.80;;;;;;5156365;28;20049;-63
2023/08/30 01:38:55;;;;;;;1.00;1.00;;;15.10;83.40;;;;;;5179143;28;20543;-62
2023/08/30 01:41:28;;;;;;;1.10;1.00;;;15.10;95.00;;;;;;5163283;28;20348;-60
2023/08/30 01:44:08;;;;;;;1.33;1.23;;;15.10;99.90;;;;;;5160818;28;20050;-62
2023/08/30 01:46:40;;;;;;;0.90;0.90;;;15.10;99.90;;;;;;5166802;28;20045;-62
2023/08/30 01:49:15;;;;;;;1.00;1.00;;;15.00;99.90;;;;;;5206250;28;20390;-65
2023/08/30 01:51:50;;;;;;;1.23;1.13;;;14.90;99.90;;;;;;5149883;28;20056;-67
2023/08/30 01:54:24;;;;;;;1.48;1.38;;;14.70;99.90;;;;;;5160491;28;20048;-65
2023/08/30 01:56:59;;;;;;;1.55;1.45;;;14.50;99.90;;;;;;5161978;28;20481;-68
2023/08/30 01:59:33;;;;;;;1.40;1.30;;;14.40;99.90;;;;;;5153984;28;20056;-70
2023/08/30 02:02:05;;;;;;;1.67;1.50;;;14.30;99.90;;;;;;5176836;28;20056;-65
2023/08/30 02:04:45;;;;;;;2.35;1.30;;;14.20;99.90;;;;;;5300070;27;20474;-66
2023/08/30 02:07:24;;;;;;;1.30;1.02;;;14.10;99.90;;;;;;5258848;27;20138;-64
2023/08/30 02:10:05;;;;;;;1.40;1.30;;;14.10;99.90;;;;;;5252299;28;20034;-66
2023/08/30 02:12:57;;;;;;;1.70;1.38;;;14.10;99.90;;;;;;5257781;28;20038;-66
2023/08/30 02:15:32;;;;;;;2.90;1.42;;;14.00;99.90;;;;;;5274963;28;20220;-63
2023/08/30 02:18:09;;;;;;;2.05;1.73;;;14.00;99.90;;;;;;5253644;28;20028;-66
2023/08/30 02:20:43;;;;;;;1.55;1.30;;;14.00;99.90;;;;;;5267003;28;20399;-66
2023/08/30 02:23:16;;;;;;;1.42;1.33;;;14.00;99.90;;;;;;5259834;28;20039;-63
2023/08/30 02:25:50;;;;;;;2.33;1.77;;;14.00;99.90;;;;;;5261704;28;20031;-64
2023/08/30 02:28:22;;;;;;;1.48;1.38;;;14.00;99.90;;;;;;5256964;28;20039;-66
2023/08/30 02:30:58;;;;;;;3.17;1.60;;;14.00;99.90;;;;;;5258442;28;20022;-62
2023/08/30 02:33:29;;;;;;;1.90;1.80;;;14.00;99.90;;;;;;5262653;28;20035;-65
2023/08/30 02:36:00;;;;;;;2.03;1.25;;;14.00;99.90;;;;;;5276541;28;20042;-62
2023/08/30 02:38:31;;;;;;;2.65;1.80;;;13.90;99.90;;;;;;5290442;27;20027;-65
2023/08/30 02:41:03;;;;;;;1.63;1.52;;;14.00;99.90;;;;;;5249821;28;20336;-64
2023/08/30 02:43:34;;;;;;;1.55;1.40;;;14.00;99.90;;;;;;5246848;28;20058;-66
2023/08/30 02:46:07;;;;;;;1.67;1.58;;;13.90;99.90;;;;;;5281815;28;20020;-66
2023/08/30 02:48:38;;;;;;;2.08;1.70;;;13.90;99.90;;;;;;5296750;28;20028;-67
2023/08/30 02:51:09;;;;;;;1.80;1.70;;;13.90;99.90;;;;;;5283398;28;20047;-67
2023/08/30 02:53:41;;;;;;;1.75;1.55;;;13.90;99.90;;;;;;5262175;27;20408;-65
2023/08/30 02:56:12;;;;;;;1.95;1.75;;;13.80;99.90;;;;;;5269781;28;20412;-65
2023/08/30 02:58:48;;;;;;;1.60;1.30;;;13.90;99.90;;;;;;5283531;27;20033;-66
2023/08/30 03:01:19;;;;;;;1.60;1.45;;;13.80;99.90;;;;;;5245060;27;20062;-63
2023/08/30 03:03:50;;;;;;;1.63;1.52;;;13.80;99.90;;;;;;5276389;28;20058;-66
2023/08/30 03:06:22;;;;;;;1.45;1.35;;;13.80;99.90;;;;;;5274023;28;20476;-63
2023/08/30 03:08:56;;;;;;;1.52;1.42;;;13.80;99.90;;;;;;5258363;28;20044;-64
2023/08/30 03:11:27;;;;;;;1.83;1.50;;;13.80;99.90;;;;;;5248958;28;20032;-67
2023/08/30 03:14:04;;;;;;;1.42;1.27;;;13.80;99.90;;;;;;5238331;28;20031;-65
2023/08/30 03:16:37;;;;;;;1.85;1.45;;;13.70;99.90;;;;;;5253166;28;20034;-66
2023/08/30 03:19:10;;;;;;;1.50;1.40;;;13.70;99.90;;;;;;5215967;28;20036;-65
2023/08/30 03:21:44;;;;;;;1.50;1.40;;;13.70;99.90;;;;;;5227098;28;20028;-64
2023/08/30 03:24:16;;;;;;;1.55;1.45;;;13.70;99.90;;;;;;5221892;28;20051;-64
2023/08/30 03:26:47;;;;;;;1.10;1.00;;;13.70;99.90;;;;;;5234484;28;20039;-63
2023/08/30 03:29:20;;;;;;;1.42;1.33;;;13.60;99.90;;;;;;5242290;28;20038;-65
2023/08/30 03:31:51;;;;;;;1.42;1.33;;;13.60;99.90;;;;;;5223410;28;20040;-69
2023/08/30 03:34:22;;;;;;;1.92;1.10;;;13.70;99.90;;;;;;5223467;28;20042;-67
2023/08/30 03:36:55;;;;;;;1.40;1.30;;;13.70;99.90;;;;;;5219951;28;20028;-63
2023/08/30 03:39:33;;;;;;;1.10;0.95;;;13.70;99.90;;;;;;5233759;28;20765;-67
2023/08/30 03:42:04;;;;;;;1.30;1.20;;;13.70;99.90;;;;;;5257438;28;20031;-66
2023/08/30 03:44:37;;;;;;;1.27;1.17;;;13.70;99.90;;;;;;5223006;28;20048;-67
2023/08/30 03:47:08;;;;;;;1.60;1.50;;;13.80;99.90;;;;;;5222197;28;20038;-66
2023/08/30 03:49:39;;;;;;;1.38;1.27;;;13.80;99.90;;;;;;5241430;28;20028;-66
2023/08/30 03:52:10;;;;;;;1.35;1.23;;;13.80;99.90;;;;;;5225011;28;20356;-66
2023/08/30 03:54:42;;;;;;;1.77;1.67;;;13.80;99.90;;;;;;5256052;28;20054;-65
2023/08/30 03:57:15;;;;;;;2.63;1.60;;;13.90;99.90;;;;;;5236587;28;20042;-67
2023/08/30 03:59:47;;;;;;;1.38;1.27;;;13.90;99.90;;;;;;5225857;28;20035;-66
2023/08/30 04:02:20;;;;;;;2.00;1.35;;;13.90;99.90;;;;;;5221311;28;20066;-62
2023/08/30 04:04:52;;;;;;;2.67;1.95;;;13.90;99.90;;;;;;5257550;28;20415;-64
2023/08/30 04:07:23;;;;;;;2.45;1.85;;;14.00;99.90;;;;;;5257097;28;20036;-62
2023/08/30 04:09:58;;;;;;;1.80;1.40;;;14.00;99.90;;;;;;5224938;28;20039;-62
2023/08/30 04:12:29;;;;;;;2.30;1.55;;;14.10;99.90;;;;;;5242052;28;20046;-64
2023/08/30 04:15:03;;;;;;;1.67;1.50;;;14.10;99.90;;;;;;5222744;28;20039;-65
2023/08/30 04:17:37;;;;;;;2.35;2.00;;;14.10;99.90;;;;;;5247877;28;20028;-66
2023/08/30 04:20:11;;;;;;;1.50;1.40;;;14.20;99.90;;;;;;5220912;28;20020;-65
2023/08/30 04:22:44;;;;;;;1.52;1.35;;;14.20;99.90;;;;;;5224336;28;20240;-64
2023/08/30 04:25:15;;;;;;;1.85;1.75;;;14.20;99.90;;;;;;5236731;28;20032;-66
2023/08/30 04:27:46;;;;;;;1.27;1.17;;;14.20;99.90;;;;;;5240244;28;20042;-62
2023/08/30 04:30:20;;;;;;;2.08;1.58;;;14.20;99.90;;;;;;5240820;28;20028;-63
2023/08/30 04:32:54;;;;;;;2.33;1.67;;;14.20;99.90;;;;;;5243204;28;20035;-63
2023/08/30 04:35:26;;;;;;;3.10;1.88;;;14.20;99.90;;;;;;5238353;28;20034;-65
2023/08/30 04:38:03;;;;;;;2.03;1.83;;;14.20;99.90;;;;;;5218840;28;20039;-65
2023/08/30 04:40:39;;;;;;;1.65;1.50;;;14.30;99.90;;;;;;5217100;28;20051;-64
2023/08/30 04:43:15;;;;;;;2.45;1.77;;;14.30;99.90;;;;;;5195927;28;20053;-63
2023/08/30 04:45:48;;;;;;;1.67;1.27;;;14.30;99.90;;;;;;5249219;28;20032;-65
2023/08/30 04:48:19;;;;;;;1.83;1.60;;;14.40;99.90;;;;;;5223999;28;20044;-65
2023/08/30 04:50:58;;;;;;;2.30;2.10;;;14.40;99.90;;;;;;5246360;28;20027;-64
2023/08/30 04:53:30;;;;;;;1.52;1.42;;;14.40;99.90;;;;;;5235876;28;20035;-63
2023/08/30 04:56:12;;;;;;;2.25;1.65;;;14.40;99.90;;;;;;5236431;28;20465;-63
2023/08/30 04:58:45;;;;;;;1.90;1.60;;;14.40;99.90;;;;;;5250938;28;20038;-63
2023/08/30 05:01:17;;;;;;;1.90;1.80;;;14.40;99.90;;;;;;5232182;28;20162;-62
2023/08/30 05:03:52;;;;;;;3.30;1.95;;;14.50;99.90;;;;;;5250775;28;20047;-63
2023/08/30 05:06:23;;;;;;;1.92;1.83;;;14.50;99.90;;;;;;5225752;28;20038;-64
2023/08/30 05:08:54;;;;;;;1.77;1.67;;;14.50;99.90;;;;;;5243518;28;20036;-63
2023/08/30 05:11:25;;;;;;;1.83;1.73;;;14.50;99.90;;;;;;5243295;28;20023;-64
2023/08/30 05:13:59;;;;;;;1.83;1.70;;;14.60;99.90;;;;;;5261242;28;20032;-62
2023/08/30 05:16:30;;;;;;;2.33;2.13;;;14.60;99.90;;;;;;5221661;28;20035;-62
2023/08/30 05:19:01;;;;;;;3.95;1.88;;;14.60;99.90;;;;;;5217958;28;20032;-64
2023/08/30 05:21:32;;;;;;;2.35;2.05;;;14.60;99.90;;;;;;5275433;28;20039;-61
2023/08/30 05:24:07;;;;;;;2.15;1.95;;;14.60;99.90;;;;;;5260659;28;20035;-62
2023/08/30 05:26:42;;;;;;;2.75;1.70;;;14.70;99.90;;;;;;5257181;28;20492;-62
2023/08/30 05:29:15;;;;;;;1.67;1.58;;;14.70;99.90;;;;;;5223836;28;20028;-68
2023/08/30 05:31:48;;;;;;;1.90;1.80;;;14.70;99.90;;;;;;5214230;28;20565;-62
2023/08/30 05:34:20;;;;;;;2.30;2.03;;;14.70;99.90;;;;;;5224078;28;20038;-63
2023/08/30 05:36:53;;;;;;;2.13;1.92;;;14.70;99.90;;;;;;5225370;28;20035;-63
2023/08/30 05:39:24;;;;;;;3.17;2.00;;;14.70;99.90;;;;;;5207006;28;20046;-63
2023/08/30 05:41:57;;;;;;;2.22;2.03;;;14.80;99.90;;;;;;5253413;28;20035;-60
2023/08/30 05:44:28;;;;;;;1.90;1.80;;;14.80;99.90;;;;;;5223982;28;20044;-61
2023/08/30 05:47:03;;;;;;;2.22;2.03;;;14.90;99.90;;;;;;5257104;28;20038;-63
2023/08/30 05:49:36;;;;;;;;;;;15.00;99.90;;;;;;5224655;28;20226;-64
2023/08/30 05:52:10;;;;;;;3.10;1.98;;;15.00;99.90;;;;;;5248140;28;19912;-61
2023/08/30 05:54:44;;;;;;;2.80;2.00;;;15.10;99.90;;;;;;5218644;28;20484;-62
2023/08/30 05:57:15;;;;;;;1.83;1.73;;;15.20;99.90;;;;;;5224624;28;20666;-62
2023/08/30 05:59:48;;;;;;;2.35;2.15;;;15.30;99.90;;;;;;5237327;28;20038;-62
2023/08/30 06:02:22;;;;;;;2.33;2.13;;;15.40;82.60;;;;;;5231246;28;20043;-62
2023/08/30 06:04:55;;;;;;;2.22;2.03;;;15.50;42.70;;;;;;5225584;28;20036;-63
2023/08/30 06:07:29;;;;;;;;;;;15.70;1.00;;;;;;5260387;28;20035;-61
2023/08/30 06:10:04;;;;;;;2.03;1.80;;;15.60;73.20;;;;;;5254595;28;19904;-62
2023/08/30 06:12:35;;;;;;;2.20;2.00;;;15.70;7.70;;;;;;5251631;28;20028;-60
2023/08/30 06:15:07;;;;;;;2.63;2.40;;;15.70;69.20;;;;;;5258560;28;20016;-65
2023/08/30 06:17:40;;;;;;;2.42;2.22;;;15.70;1.00;;;;;;5224107;28;20050;-63
2023/08/30 06:20:12;;;;;;;2.38;2.17;;;15.80;1.00;;;;;;5221160;28;20341;-61
2023/08/30 06:22:43;;;;;;;2.00;1.80;;;15.70;1.00;;;;;;5212916;28;20028;-62
2023/08/30 06:25:17;;;;;;;2.20;2.00;;;15.60;1.00;;;;;;5254946;28;20063;-63
2023/08/30 06:28:01;;;;;;;2.70;1.77;;;15.70;1.00;;;;;;5253297;28;20044;-62
2023/08/30 06:30:32;;;;;;;2.17;1.90;;;15.60;1.00;;;;;;5228549;28;20478;-64
2023/08/30 06:33:03;;;;;;;3.75;2.13;;;15.70;1.00;;;;;;5226333;28;20275;-62
2023/08/30 06:35:42;;;;;;;2.40;2.20;;;15.70;1.00;;;;;;5244475;28;20042;-62
2023/08/30 06:38:13;;;;;;;1.85;1.75;;;15.70;1.00;;;;;;5219324;28;20028;-61
2023/08/30 06:40:50;;;;;;;2.20;2.00;;;15.80;1.00;;;;;;5213522;28;20313;-61
2023/08/30 06:43:21;;;;;;;1.73;1.63;;;15.70;1.00;;;;;;5228575;28;20038;-62
2023/08/30 06:45:53;;;;;;;2.00;1.90;;;15.80;1.00;;;;;;5250310;28;20031;-62
2023/08/30 06:48:24;;;;;;;2.03;1.90;;;16.00;1.00;;;;;;5221953;28;20370;-61
2023/08/30 06:51:00;;;;;;;1.67;1.58;;;16.10;1.00;;;;;;5249786;28;20027;-61
2023/08/30 06:53:32;;;;;;;1.92;1.80;;;16.20;1.00;;;;;;5213154;28;20039;-64
2023/08/30 06:56:08;;;;;;;2.15;1.80;;;16.10;1.00;;;;;;5210497;28;20059;-63
2023/08/30 06:58:39;;;;;;;1.83;1.73;;;16.20;1.00;;;;;;5249508;28;20039;-63
2023/08/30 07:01:13;;;;;;;1.98;1.88;;;16.20;1.00;;;;;;5211717;28;20044;-62
2023/08/30 07:03:49;;;;;;;1.90;1.80;;;16.20;1.00;;;;;;5211804;28;20044;-61
2023/08/30 07:06:24;;;;;;;1.73;1.63;;;16.40;1.00;;;;;;5214132;28;20036;-63
2023/08/30 07:08:55;;;;;;;;;;;16.30;1.00;;;;;;5198133;28;20045;-61
2023/08/30 07:11:26;;;;;;;1.90;1.80;;;16.30;1.00;;;;;;5225439;28;20243;-62
2023/08/30 07:13:57;;;;;;;2.15;1.55;;;16.50;1.00;;;;;;5226734;28;20037;-62
2023/08/30 07:16:31;;;;;;;1.70;1.60;;;16.60;1.00;;;;;;5222249;28;20040;-62
2023/08/30 07:19:03;;;;;;;1.60;1.50;;;16.80;1.00;;;;;;5211906;28;20032;-62
2023/08/30 07:21:38;;;;;;;1.63;1.52;;;16.90;99.90;;;;;;5229555;28;20028;-63
2023/08/30 07:24:12;;;;;;;1.40;1.30;;;16.80;99.90;;;;;;5216970;28;20041;-62
2023/08/30 07:26:43;;;;;;;1.67;1.58;;;17.00;99.90;;;;;;5211347;28;20044;-66
2023/08/30 07:29:14;;;;;;;1.52;1.42;;;17.10;99.90;;;;;;5226129;28;20301;-61
2023/08/30 07:31:46;;;;;;;1.67;1.58;;;17.20;99.90;;;;;;5218892;28;20055;-62
2023/08/30 07:34:19;;;;;;;1.70;1.60;;;17.10;99.90;;;;;;5222418;28;20032;-62
2023/08/30 07:36:56;;;;;;;1.60;1.45;;;17.20;99.90;;;;;;5206717;28;20034;-63
2023/08/30 07:39:27;;;;;;;1.40;1.30;;;17.40;99.90;;;;;;5225314;28;20032;-61
2023/08/30 07:42:01;;;;;;;1.67;1.58;;;17.40;99.90;;;;;;5227965;28;20039;-62
2023/08/30 07:44:32;;;;;;;1.40;1.30;;;17.40;99.90;;;;;;5217685;28;20427;-61
2023/08/30 07:47:06;;;;;;;2.75;1.35;;;17.30;95.80;;;;;;5223929;28;20025;-63
2023/08/30 07:49:40;;;;;;;1.50;1.40;;;17.40;99.90;;;;;;5210457;28;20343;-62
2023/08/30 07:52:12;;;;;;;1.58;1.48;;;17.30;18.20;;;;;;5209390;28;20434;-61
2023/08/30 07:54:44;;;;;;;4.32;1.60;;;17.20;11.80;;;;;;5232290;28;20024;-62
2023/08/30 07:57:20;;;;;;;1.30;1.20;;;17.30;90.50;;;;;;5232599;28;20024;-61
2023/08/30 07:59:51;;;;;;;1.40;1.30;;;17.50;10.30;;;;;;5215912;28;20339;-61
2023/08/30 08:02:26;;;;;;;1.10;1.10;;;17.70;1.00;;;;;;5232300;28;20033;-64
2023/08/30 08:04:57;;;;;;;1.40;1.30;;;17.60;1.00;;;;;;5243828;28;20119;-63
2023/08/30 08:07:28;;;;;;;1.45;1.35;;;17.50;1.00;;;;;;5219506;28;20031;-62
2023/08/30 08:09:59;;;;;;;1.40;1.30;;;17.60;1.00;;;;;;5255325;28;20028;-61
2023/08/30 08:12:32;;;;;;;1.35;1.25;;;17.70;1.00;;;;;;5252093;28;20228;-64
2023/08/30 08:15:04;;;;;;;1.42;1.33;;;17.80;1.00;;;;;;5212647;28;20035;-64
2023/08/30 08:17:38;;;;;;;1.55;1.45;;;17.40;1.00;;;;;;5220151;28;20028;-65
2023/08/30 08:20:09;;;;;;;1.33;1.23;;;17.50;1.00;;;;;;5219719;28;20255;-63
2023/08/30 08:22:44;;;;;;;1.42;1.33;;;17.60;1.00;;;;;;5217340;28;20040;-62
2023/08/30 08:25:15;;;;;;;1.33;1.25;;;17.70;1.00;;;;;;5244883;28;20043;-64
2023/08/30 08:27:49;;;;;;;1.20;1.20;;;17.50;1.00;;;;;;5211506;28;20043;-61
2023/08/30 08:30:20;;;;;;;1.00;1.00;;;17.40;1.00;;;;;;5223484;28;20047;-62
2023/08/30 08:32:52;;;;;;;0.85;0.85;;;17.40;1.00;;;;;;5226360;28;20043;-64
2023/08/30 08:35:26;;;;;;;1.30;1.27;;;17.60;1.00;;;;;;5248842;28;20020;-62
2023/08/30 08:37:57;;;;;;;2.05;1.50;;;17.70;1.00;;;;;;5215665;28;20312;-62
2023/08/30 08:40:28;;;;;;;1.38;1.27;;;17.80;1.00;;;;;;5246386;28;20062;-62
2023/08/30 08:43:02;;;;;;;1.00;1.00;;;17.70;1.00;;;;;;5227846;28;20039;-64
2023/08/30 08:45:39;;;;;;;1.20;1.20;;;17.90;1.00;;;;;;5209529;28;20512;-65
2023/08/30 08:48:12;;;;;;;1.00;0.90;;;18.00;1.00;;;;;;5215353;28;20337;-63
2023/08/30 08:50:46;;;;;;;0.90;0.90;;;17.90;1.00;;;;;;5221067;28;20032;-68
2023/08/30 08:53:19;;;;;;;0.90;0.90;;;18.00;1.00;;;;;;5217867;28;20038;-63
2023/08/30 08:55:55;;;;;;;1.20;1.10;;;17.90;1.00;;;;;;5211762;28;20051;-64
2023/08/30 08:58:30;;;;;;;1.00;1.00;;;18.10;1.00;;;;;;5208972;28;20542;-64
2023/08/30 09:01:04;;;;;;;1.20;1.10;;;18.00;1.00;;;;;;5244627;28;20032;-63
2023/08/30 09:03:38;;;;;;;1.48;1.38;;;18.00;1.00;;;;;;5230820;28;20340;-65
2023/08/30 09:06:10;;;;;;;0.93;0.93;;;18.20;1.00;;;;;;5214770;28;20043;-65
2023/08/30 09:08:41;;;;;;;7.00;1.90;;;18.30;1.00;;;;;;5232847;28;20221;-65
2023/08/30 09:11:13;;;;;;;1.20;1.10;;;18.40;1.00;;;;;;5226429;28;20032;-63
2023/08/30 09:13:44;;;;;;;1.40;1.30;;;18.10;1.00;;;;;;5214319;28;20039;-63
2023/08/30 09:16:16;;;;;;;2.97;1.30;;;18.00;1.00;;;;;;5229469;28;20040;-62
2023/08/30 09:19:03;;;;;;;1.55;1.45;;;17.80;1.00;;;;;;5211695;28;20357;-63
2023/08/30 09:21:37;;;;;;;1.30;1.23;;;18.00;1.00;;;;;;5206834;28;20040;-63
2023/08/30 09:24:09;;;;;;;1.55;1.45;;;17.90;1.00;;;;;;5231025;28;20050;-66
2023/08/30 09:26:55;;;;;;;0.98;0.98;;;17.80;1.00;;;;;;5229482;28;20305;-60
2023/08/30 09:29:26;;;;;;;1.63;1.42;;;17.90;1.00;;;;;;5211734;28;20032;-62
2023/08/30 09:31:58;;;;;;;1.30;1.20;;;18.00;1.00;;;;;;5201818;28;20382;-62
2023/08/30 09:34:29;;;;;;;1.50;1.40;;;18.40;1.00;;;;;;5209569;28;20072;-63
2023/08/30 09:37:01;;;;;;;1.30;1.20;;;18.30;1.00;;;;;;5231080;28;20036;-63
2023/08/30 09:39:33;;;;;;;1.60;1.20;;;18.40;1.00;;;;;;5198847;28;20067;-61
2023/08/30 09:42:07;;;;;;;1.52;1.42;;;17.50;1.00;;;;;;5223197;28;20036;-61
2023/08/30 09:44:38;;;;;;;;;;;17.30;1.00;;;;;;5205248;28;20047;-61
2023/08/30 09:47:15;;;;;;;1.10;1.10;;;17.50;1.00;;;;;;5210122;28;19907;-63
2023/08/30 09:49:46;;;;;;;1.10;1.10;;;17.50;1.00;;;;;;5211822;28;20039;-65
2023/08/30 09:52:19;;;;;;;1.40;1.30;;;17.30;1.00;;;;;;5207030;28;20043;-64
2023/08/30 09:54:51;;;;;;;1.15;1.10;;;17.50;1.00;;;;;;5232415;28;20513;-65
2023/08/30 09:57:23;;;;;;;1.05;1.05;;;17.70;1.00;;;;;;5215878;28;20051;-65
2023/08/30 09:59:59;;;;;;;1.40;1.30;;;17.70;1.00;;;;;;5213430;28;20031;-63
2023/08/30 10:02:33;;;;;;;1.50;1.40;;;17.70;1.00;;;;;;5227494;28;20043;-64
2023/08/30 10:05:05;;;;;;;1.00;1.00;;;18.00;1.00;;;;;;5247627;28;20046;-65
2023/08/30 10:07:38;;;;;;;1.20;1.20;;;18.20;1.00;;;;;;5216248;28;20349;-63
2023/08/30 10:10:12;;;;;;;1.40;1.23;;;18.20;1.00;;;;;;5216524;28;20028;-65
2023/08/30 10:12:46;;;;;;;1.55;1.45;;;18.00;1.00;;;;;;5230109;28;20029;-62
2023/08/30 10:15:22;;;;;;;1.50;1.40;;;17.80;1.00;;;;;;5212504;28;20028;-62
2023/08/30 10:17:56;;;;;;;1.33;1.23;;;17.70;1.00;;;;;;5251081;28;20016;-62
2023/08/30 10:20:28;;;;;;;1.40;1.30;;;17.60;1.00;;;;;;5216674;28;20050;-64
2023/08/30 10:23:05;;;;;;;1.13;1.13;;;17.60;1.00;;;;;;5235468;28;20039;-65
2023/08/30 10:25:38;;;;;;;1.50;1.40;;;17.40;1.00;;;;;;5249102;28;20244;-63
2023/08/30 10:28:09;;;;;;;1.55;1.45;;;17.20;52.10;;;;;;5257550;28;20020;-64
2023/08/30 10:30:42;;;;;;;1.00;1.00;;;17.20;99.90;;;;;;5221063;28;20040;-62
2023/08/30 10:33:18;;;;;;;1.30;1.20;;;17.20;21.50;;;;;;5218181;28;20039;-64
2023/08/30 10:35:51;;;;;;;1.33;1.23;;;17.20;1.00;;;;;;5206549;28;20355;-64
2023/08/30 10:38:28;;;;;;;1.67;1.58;;;17.50;1.00;;;;;;5245681;28;20039;-61
2023/08/30 10:41:07;;;;;;;1.48;1.30;;;17.90;1.00;;;;;;5210646;28;20503;-65
2023/08/30 10:43:39;;;;;;;1.40;1.30;;;18.30;1.00;;;;;;5205633;28;20518;-63
2023/08/30 10:46:12;;;;;;;1.83;1.42;;;18.30;1.00;;;;;;5223733;28;20043;-63
2023/08/30 10:48:44;;;;;;;1.38;1.30;;;18.50;1.00;;;;;;5209019;28;20031;-65
2023/08/30 10:51:38;;;;;;;1.15;1.10;;;18.50;1.00;;;;;;5247196;28;20028;-63
2023/08/30 10:54:17;;;;;;;1.60;1.50;;;18.30;1.00;;;;;;5248786;28;20028;-65
2023/08/30 10:56:57;;;;;;;1.13;1.13;;;18.30;1.00;;;;;;5227022;28;20028;-62
2023/08/30 10:59:29;;;;;;;1.55;1.45;;;18.60;1.00;;;;;;5244381;28;20041;-62
2023/08/30 11:02:04;;;;;;;1.38;1.27;;;18.70;1.00;;;;;;5236328;28;20024;-64
2023/08/30 11:04:41;;;;;;;1.35;1.35;;;18.60;1.00;;;;;;5212196;28;20028;-61
2023/08/30 11:07:12;;;;;;;1.50;1.40;;;18.50;1.00;;;;;;5228934;28;20028;-61
2023/08/30 11:09:44;;;;;;;1.33;1.23;;;18.40;1.00;;;;;;5235555;28;20025;-61
2023/08/30 11:12:18;;;;;;;1.52;1.42;;;18.10;1.00;;;;;;5219964;28;20032;-61
2023/08/30 11:14:52;;;;;;;1.47;1.37;;;18.00;1.00;;;;;;5215209;28;20047;-63
2023/08/30 11:17:23;;;;;;;1.60;1.50;;;18.10;1.00;;;;;;5206178;28;20277;-63
2023/08/30 11:20:08;;;;;;;1.60;1.50;;;18.30;1.00;;;;;;5212551;28;20033;-60
2023/08/30 11:22:42;;;;;;;1.77;1.33;;;18.40;1.00;;;;;;5211266;28;20036;-65
2023/08/30 11:25:15;;;;;;;1.65;1.55;;;18.20;1.00;;;;;;5210202;28;20376;-66
2023/08/30 11:27:47;;;;;;;1.60;1.50;;;18.30;1.00;;;;;;5228113;28;20364;-64
2023/08/30 11:30:21;;;;;;;1.50;1.40;;;18.20;1.00;;;;;;5220418;28;20028;-65
2023/08/30 11:32:54;;;;;;;1.50;1.40;;;18.20;1.00;;;;;;5208047;28;20368;-63
2023/08/30 11:35:29;;;;;;;1.40;1.30;;;18.30;1.00;;;;;;5209089;28;20036;-62
2023/08/30 11:38:01;;;;;;;1.60;1.40;;;18.80;1.00;;;;;;5208296;28;20512;-63
2023/08/30 11:40:34;;;;;;;1.52;1.42;;;18.90;1.00;;;;;;5237670;28;20028;-62
2023/08/30 11:43:06;;;;;;;1.35;1.25;;;19.10;1.00;;;;;;5219228;28;20126;-62
2023/08/30 11:45:38;;;;;;;1.42;1.33;;;19.80;1.00;;;;;;5215893;28;20458;-64
2023/08/30 11:48:12;;;;;;;1.13;1.13;;;19.40;1.00;;;;;;5213848;28;20032;-63
2023/08/30 11:50:44;;;;;;;1.38;1.20;;;19.40;1.00;;;;;;5199300;28;20033;-64
2023/08/30 11:53:18;;;;;;;2.10;1.08;;;19.60;1.00;;;;;;5221373;28;20479;-64
2023/08/30 11:55:49;;;;;;;0.90;0.90;;;19.70;1.00;;;;;;5214887;28;20469;-64
2023/08/30 11:58:21;;;;;;;1.30;1.20;;;20.00;1.00;;;;;;5228818;28;20027;-63
2023/08/30 12:00:54;;;;;;;1.35;1.25;;;20.40;1.00;;;;;;5228731;28;20038;-61
2023/08/30 12:03:29;;;;;;;1.23;1.20;;;20.30;1.00;;;;;;5246353;28;20599;-61
2023/08/30 12:06:01;;;;;;;1.40;1.30;;;20.40;1.00;;;;;;5215456;28;20334;-61
2023/08/30 12:08:32;;;;;;;1.40;1.30;;;20.70;1.00;;;;;;5219123;28;20054;-61
2023/08/30 12:11:06;;;;;;;1.35;1.25;;;20.20;1.00;;;;;;5230215;28;20040;-64
2023/08/30 12:13:38;;;;;;;2.92;1.42;;;19.60;1.00;;;;;;5231282;28;20035;-66
2023/08/30 12:16:18;;;;;;;1.42;1.33;;;19.30;1.00;;;;;;5218761;28;20036;-63
2023/08/30 12:18:49;;;;;;;2.08;1.45;;;19.10;1.00;;;;;;5222844;28;20028;-62
2023/08/30 12:21:20;;;;;;;1.60;1.50;;;19.00;99.90;;;;;;5238882;28;20027;-62
2023/08/30 12:24:03;;;;;;;1.40;1.30;;;19.10;99.90;;;;;;5234473;28;20042;-65
2023/08/30 12:26:35;;;;;;;1.30;1.20;;;19.40;99.90;;;;;;5220867;28;20031;-64
2023/08/30 12:29:06;;;;;;;1.58;1.23;;;19.60;99.90;;;;;;5204754;28;20028;-64
2023/08/30 12:31:37;;;;;;;1.33;1.23;;;20.20;99.90;;;;;;5236831;28;20024;-62
2023/08/30 12:34:09;;;;;;;1.05;1.05;;;20.50;1.00;;;;;;5220799;28;20403;-62
2023/08/30 12:36:40;;;;;;;2.15;1.33;;;20.90;99.90;;;;;;5257260;28;20032;-63
2023/08/30 12:39:13;;;;;;;1.38;1.27;;;20.80;99.90;;;;;;5254701;28;20035;-65
2023/08/30 12:41:44;;;;;;;1.45;1.35;;;20.70;1.00;;;;;;5221303;28;20221;-64
2023/08/30 12:44:15;;;;;;;1.02;1.00;;;20.50;99.90;;;;;;5218098;28;20040;-64
2023/08/30 12:46:47;;;;;;;1.30;1.20;;;20.20;1.00;;;;;;5213287;28;20044;-64
2023/08/30 12:49:18;;;;;;;1.40;1.30;;;20.80;1.00;;;;;;5249857;28;20031;-60
2023/08/30 12:51:52;;;;;;;1.05;1.02;;;21.20;99.90;;;;;;5253405;28;20163;-63
2023/08/30 12:54:23;;;;;;;1.50;1.40;;;21.40;99.90;;;;;;5219777;28;20050;-62
2023/08/30 12:56:54;;;;;;;1.30;1.20;;;21.10;99.90;;;;;;5220752;28;20028;-65
2023/08/30 12:59:28;;;;;;;1.40;1.30;;;21.20;99.90;;;;;;5235988;28;20038;-63
2023/08/30 13:02:02;;;;;;;1.50;1.20;;;21.40;1.00;;;;;;5222989;28;20025;-64
2023/08/30 13:04:33;;;;;;;1.27;1.17;;;21.20;99.90;;;;;;5214910;28;21203;-64
2023/08/30 13:07:09;;;;;;;1.35;1.30;;;20.80;99.90;;;;;;5209263;28;20038;-66
2023/08/30 13:09:40;;;;;;;1.38;1.27;;;20.80;1.00;;;;;;5189704;28;20031;-65
2023/08/30 13:12:12;;;;;;;1.23;1.13;;;21.10;1.00;;;;;;5241498;28;20032;-64
2023/08/30 13:14:43;;;;;;;1.00;1.00;;;21.40;1.00;;;;;;5240721;28;20022;-65
2023/08/30 13:17:17;;;;;;;1.20;1.20;;;21.70;1.00;;;;;;5221114;28;20067;-66
2023/08/30 13:19:49;;;;;;;1.30;1.20;;;22.00;99.90;;;;;;5221976;28;20028;-64
2023/08/30 13:22:23;;;;;;;1.17;1.08;;;21.30;99.90;;;;;;5215955;28;20240;-66
2023/08/30 13:24:58;;;;;;;1.25;1.15;;;20.90;99.90;;;;;;5239488;28;20036;-65